Time;durP1;ratioP1;P1;durP2;ratioP2;P2;SDS_P1;SDS_P2;PMS_P1;PMS_P2;Temp;Humidity;BMP_temperature;BMP_pressure;BME280_temperature;BME280_humidity;BME280_pressure;Samples;Min_cycle;Max_cycle;Signal;HPM_P1;HPM_P2
2022/08/29 00:00:03;;;;;;;4.55;2.97;;;;;;;;;;5027464;28;20083;-74
2022/08/29 00:02:28;;;;;;;4.40;2.97;;;;;;;;;;5024110;28;20083;-74
2022/08/29 00:04:54;;;;;;;5.53;3.10;;;;;;;;;;5022478;28;20052;-73
2022/08/29 00:07:19;;;;;;;6.30;2.58;;;;;;;;;;5022140;28;20646;-74
2022/08/29 00:09:44;;;;;;;7.65;2.80;;;;;;;;;;5019085;28;20026;-74
2022/08/29 00:12:09;;;;;;;6.60;3.50;;;;;;;;;;5029518;28;20053;-70
2022/08/29 00:14:35;;;;;;;4.25;2.40;;;;;;;;;;5022672;28;20030;-72
2022/08/29 00:17:00;;;;;;;10.07;3.53;;;;;;;;;;5023642;28;20026;-73
2022/08/29 00:19:26;;;;;;;6.35;2.95;;;;;;;;;;5021670;28;20452;-74
2022/08/29 00:21:52;;;;;;;6.40;3.25;;;;;;;;;;5023448;28;20022;-73
2022/08/29 00:24:17;;;;;;;8.63;3.42;;;;;;;;;;5023248;28;20049;-74
2022/08/29 00:26:43;;;;;;;9.02;3.55;;;;;;;;;;5023936;28;20493;-70
2022/08/29 00:29:08;;;;;;;4.68;2.80;;;;;;;;;;5021211;28;20030;-74
2022/08/29 00:31:33;;;;;;;8.30;3.28;;;;;;;;;;5014942;28;20030;-73
2022/08/29 00:33:58;;;;;;;5.43;3.25;;;;;;;;;;5020667;28;20500;-70
2022/08/29 00:36:24;;;;;;;8.77;3.50;;;;;;;;;;5015264;28;20065;-71
2022/08/29 00:38:49;;;;;;;7.38;3.55;;;;;;;;;;5018537;28;20026;-74
2022/08/29 00:41:15;;;;;;;5.28;3.20;;;;;;;;;;5019723;28;20067;-74
2022/08/29 00:43:40;;;;;;;9.25;3.60;;;;;;;;;;5019168;28;20045;-71
2022/08/29 00:46:18;;;;;;;5.82;3.35;;;;;;;;;;5015032;28;20353;-74
2022/08/29 00:48:45;;;;;;;7.95;3.50;;;;;;;;;;5018240;28;20033;-74
2022/08/29 00:51:13;;;;;;;7.93;3.13;;;;;;;;;;5016244;28;20108;-74
2022/08/29 00:53:40;;;;;;;6.88;3.78;;;;;;;;;;5016428;28;20585;-74
2022/08/29 00:56:07;;;;;;;8.98;3.38;;;;;;;;;;5019117;28;20485;-74
2022/08/29 00:58:44;;;;;;;10.55;3.78;;;;;;;;;;5018785;28;20041;-72
2022/08/29 01:01:09;;;;;;;9.75;3.55;;;;;;;;;;5015632;28;20095;-73
2022/08/29 01:03:35;;;;;;;6.55;3.83;;;;;;;;;;5016383;28;20709;-74
2022/08/29 01:06:01;;;;;;;6.60;3.53;;;;;;;;;;5016146;28;20120;-74
2022/08/29 01:08:26;;;;;;;6.18;3.63;;;;;;;;;;5016943;28;20057;-74
2022/08/29 01:13:37;;;;;;;10.13;4.00;;;;;;;;;;5011962;28;20041;-70
2022/08/29 01:16:03;;;;;;;9.48;3.78;;;;;;;;;;5014765;28;20029;-74
2022/08/29 01:18:31;;;;;;;9.40;3.55;;;;;;;;;;5018326;28;20447;-74
2022/08/29 01:21:15;;;;;;;8.07;3.85;;;;;;;;;;5019880;28;20049;-74
2022/08/29 01:23:59;;;;;;;6.50;3.65;;;;;;;;;;5018590;28;20652;-74
2022/08/29 01:26:28;;;;;;;7.72;3.95;;;;;;;;;;5018160;28;20111;-74
2022/08/29 01:28:53;;;;;;;10.25;4.25;;;;;;;;;;5020019;28;20057;-73
2022/08/29 01:31:23;;;;;;;8.70;4.05;;;;;;;;;;5013209;28;20133;-74
2022/08/29 01:33:50;;;;;;;9.73;3.75;;;;;;;;;;5016062;28;20029;-73
2022/08/29 01:36:23;;;;;;;7.82;3.70;;;;;;;;;;5015620;28;20037;-72
2022/08/29 01:38:48;;;;;;;12.20;4.82;;;;;;;;;;5018411;28;20083;-71
2022/08/29 01:41:16;;;;;;;11.05;4.47;;;;;;;;;;5013256;28;20029;-74
2022/08/29 01:43:46;;;;;;;9.20;5.50;;;;;;;;;;5021741;28;20058;-74
2022/08/29 01:46:13;;;;;;;10.80;4.13;;;;;;;;;;5015923;28;20381;-73
2022/08/29 01:48:39;;;;;;;14.93;4.80;;;;;;;;;;5019078;28;20034;-71
2022/08/29 01:51:04;;;;;;;7.80;4.22;;;;;;;;;;5021310;28;20034;-73
2022/08/29 01:53:30;;;;;;;10.35;4.38;;;;;;;;;;5025450;28;20021;-70
2022/08/29 01:55:55;;;;;;;9.07;5.22;;;;;;;;;;5026358;28;20036;-74
2022/08/29 01:58:21;;;;;;;11.55;4.43;;;;;;;;;;5025696;28;20112;-73
2022/08/29 02:00:46;;;;;;;10.18;4.80;;;;;;;;;;5026756;28;20033;-71
2022/08/29 02:03:11;;;;;;;11.00;4.68;;;;;;;;;;5024761;28;20029;-74
2022/08/29 02:05:37;;;;;;;7.43;3.60;;;;;;;;;;5025150;28;20180;-74
2022/08/29 02:08:02;;;;;;;11.32;5.22;;;;;;;;;;5025996;28;20992;-74
2022/08/29 02:10:28;;;;;;;11.60;4.65;;;;;;;;;;5019092;28;20483;-73
2022/08/29 02:12:53;;;;;;;10.15;4.43;;;;;;;;;;5026720;28;20046;-70
2022/08/29 02:15:20;;;;;;;12.20;5.63;;;;;;;;;;5019631;28;20084;-74
2022/08/29 02:17:45;;;;;;;9.15;4.60;;;;;;;;;;5015016;28;20034;-70
2022/08/29 02:20:11;;;;;;;11.13;4.88;;;;;;;;;;5017857;28;20044;-74
2022/08/29 02:22:37;;;;;;;10.77;4.47;;;;;;;;;;5015508;28;20028;-74
2022/08/29 02:25:40;;;;;;;9.07;4.20;;;;;;;;;;5016719;28;20072;-74
2022/08/29 02:27:51;;;;;;;10.57;4.40;;;;;;;;;;5015346;28;20037;-73
2022/08/29 02:30:16;;;;;;;9.60;5.30;;;;;;;;;;5014153;28;20044;-74
2022/08/29 02:32:41;;;;;;;10.07;4.25;;;;;;;;;;5016663;28;20117;-71
2022/08/29 02:35:06;;;;;;;9.27;4.60;;;;;;;;;;5013690;28;20401;-74
2022/08/29 02:37:32;;;;;;;8.50;4.57;;;;;;;;;;5020360;28;20551;-72
2022/08/29 02:39:57;;;;;;;7.27;4.50;;;;;;;;;;5017846;28;20025;-74
2022/08/29 02:42:22;;;;;;;11.52;5.47;;;;;;;;;;5012396;28;20314;-74
2022/08/29 02:44:48;;;;;;;7.13;3.78;;;;;;;;;;5016379;28;20109;-73
2022/08/29 02:47:13;;;;;;;5.65;3.55;;;;;;;;;;5017009;28;20056;-73
2022/08/29 02:49:38;;;;;;;7.57;4.28;;;;;;;;;;5013412;28;20033;-70
2022/08/29 02:52:05;;;;;;;8.65;3.95;;;;;;;;;;5017278;28;20029;-74
2022/08/29 02:54:30;;;;;;;10.77;5.03;;;;;;;;;;5016389;28;20363;-73
2022/08/29 02:56:55;;;;;;;10.80;3.70;;;;;;;;;;5013407;28;20045;-73
2022/08/29 02:59:21;;;;;;;10.47;4.07;;;;;;;;;;5013352;28;20419;-73
2022/08/29 03:01:46;;;;;;;7.82;3.85;;;;;;;;;;5013382;28;20860;-74
2022/08/29 03:04:11;;;;;;;7.77;3.60;;;;;;;;;;5020126;28;20022;-70
2022/08/29 03:06:36;;;;;;;10.57;3.42;;;;;;;;;;5015303;28;20301;-73
2022/08/29 03:09:02;;;;;;;7.13;3.58;;;;;;;;;;5015120;28;20508;-74
2022/08/29 03:11:28;;;;;;;9.30;4.50;;;;;;;;;;5012816;28;20365;-72
2022/08/29 03:13:53;;;;;;;7.68;3.40;;;;;;;;;;5016839;28;20025;-73
2022/08/29 03:16:18;;;;;;;10.95;4.25;;;;;;;;;;5011151;28;20394;-74
2022/08/29 03:18:44;;;;;;;7.27;3.33;;;;;;;;;;5019708;28;20037;-74
2022/08/29 03:21:13;;;;;;;7.22;3.83;;;;;;;;;;5018775;28;20285;-71
2022/08/29 03:23:38;;;;;;;8.57;4.07;;;;;;;;;;5021912;28;20544;-74
2022/08/29 03:26:04;;;;;;;6.45;3.55;;;;;;;;;;5022755;28;20144;-73
2022/08/29 03:28:29;;;;;;;10.02;3.75;;;;;;;;;;5018044;28;20022;-70
2022/08/29 03:30:54;;;;;;;6.70;3.78;;;;;;;;;;5016807;28;20020;-73
2022/08/29 03:33:19;;;;;;;8.55;4.00;;;;;;;;;;5023199;28;20025;-74
2022/08/29 03:35:44;;;;;;;7.70;4.20;;;;;;;;;;5021181;28;20044;-71
2022/08/29 03:38:10;;;;;;;7.45;3.80;;;;;;;;;;5013518;28;20294;-71
2022/08/29 03:40:35;;;;;;;9.07;4.40;;;;;;;;;;5022357;28;20025;-71
2022/08/29 03:43:02;;;;;;;9.02;4.25;;;;;;;;;;5024180;28;20033;-74
2022/08/29 03:45:28;;;;;;;9.75;3.85;;;;;;;;;;5021102;28;20032;-72
2022/08/29 03:47:53;;;;;;;7.43;4.30;;;;;;;;;;5023577;28;20029;-74
2022/08/29 03:50:19;;;;;;;8.25;4.25;;;;;;;;;;5022265;28;20096;-75
2022/08/29 03:52:45;;;;;;;9.80;3.95;;;;;;;;;;5020521;28;20030;-71
2022/08/29 03:55:11;;;;;;;10.90;4.13;;;;;;;;;;5025068;28;20030;-74
2022/08/29 03:57:36;;;;;;;9.25;3.97;;;;;;;;;;5023582;28;20458;-70
2022/08/29 04:00:09;;;;;;;7.53;3.85;;;;;;;;;;5024013;28;20100;-74
2022/08/29 04:02:34;;;;;;;;;;;;;;;;;;5017781;28;20481;-72
2022/08/29 04:05:08;;;;;;;6.60;3.33;;;;;;;;;;5025556;28;19913;-73
2022/08/29 04:07:48;;;;;;;7.53;3.67;;;;;;;;;;5022508;28;20056;-74
2022/08/29 04:10:19;;;;;;;6.90;3.47;;;;;;;;;;5024486;28;20017;-75
2022/08/29 04:12:44;;;;;;;6.47;4.15;;;;;;;;;;5029105;28;20525;-73
2022/08/29 04:15:10;;;;;;;6.95;3.38;;;;;;;;;;5024151;28;20119;-74
2022/08/29 04:17:36;;;;;;;10.68;3.78;;;;;;;;;;5022672;28;20029;-74
2022/08/29 04:20:03;;;;;;;8.80;4.25;;;;;;;;;;5023257;28;20390;-72
2022/08/29 04:22:28;;;;;;;11.90;4.28;;;;;;;;;;5020013;28;20057;-75
2022/08/29 04:24:54;;;;;;;10.90;4.40;;;;;;;;;;5017137;28;20029;-74
2022/08/29 04:27:19;;;;;;;4.82;2.92;;;;;;;;;;5018351;28;20291;-74
2022/08/29 04:29:47;;;;;;;6.45;3.33;;;;;;;;;;5020465;28;20030;-74
2022/08/29 04:32:12;;;;;;;10.63;4.00;;;;;;;;;;5015977;28;20025;-74
2022/08/29 04:34:38;;;;;;;8.48;3.25;;;;;;;;;;5019118;28;20037;-74
2022/08/29 04:37:03;;;;;;;9.80;3.90;;;;;;;;;;5023374;28;20493;-74
2022/08/29 04:39:28;;;;;;;11.30;4.30;;;;;;;;;;5024719;28;20116;-74
2022/08/29 04:41:53;;;;;;;6.70;3.17;;;;;;;;;;5019203;28;20378;-70
2022/08/29 04:44:19;;;;;;;6.85;3.38;;;;;;;;;;5023602;28;20135;-74
2022/08/29 04:46:44;;;;;;;6.60;3.58;;;;;;;;;;5018364;28;21481;-74
2022/08/29 04:49:09;;;;;;;8.80;4.57;;;;;;;;;;5020584;28;20037;-74
2022/08/29 04:51:35;;;;;;;7.90;3.33;;;;;;;;;;5021999;28;20907;-74
2022/08/29 04:54:01;;;;;;;5.55;3.17;;;;;;;;;;5022491;28;20334;-74
2022/08/29 04:56:26;;;;;;;7.32;3.83;;;;;;;;;;5021575;28;20036;-74
2022/08/29 04:58:51;;;;;;;8.90;3.75;;;;;;;;;;5017051;28;20478;-74
2022/08/29 05:01:19;;;;;;;7.30;3.90;;;;;;;;;;5018355;28;20495;-74
2022/08/29 05:03:45;;;;;;;8.77;3.33;;;;;;;;;;5016330;28;20410;-74
2022/08/29 05:06:11;;;;;;;12.63;3.85;;;;;;;;;;5021185;28;20029;-73
2022/08/29 05:08:37;;;;;;;8.75;3.55;;;;;;;;;;5016014;28;20061;-74
2022/08/29 05:11:05;;;;;;;7.28;3.97;;;;;;;;;;5018011;28;20599;-74
2022/08/29 05:13:31;;;;;;;10.30;4.65;;;;;;;;;;5019532;28;20049;-74
2022/08/29 05:15:56;;;;;;;7.85;3.35;;;;;;;;;;5015206;28;20104;-70
2022/08/29 05:18:22;;;;;;;9.80;3.90;;;;;;;;;;5018811;28;20025;-74
2022/08/29 05:20:48;;;;;;;9.07;3.83;;;;;;;;;;5015671;28;20382;-72
2022/08/29 05:23:17;;;;;;;10.35;4.13;;;;;;;;;;5013746;28;20025;-71
2022/08/29 05:25:43;;;;;;;7.20;3.83;;;;;;;;;;5016689;28;20049;-73
2022/08/29 05:28:10;;;;;;;8.23;3.40;;;;;;;;;;5010657;28;20021;-73
2022/08/29 05:30:36;;;;;;;11.38;3.80;;;;;;;;;;5014993;28;20022;-74
2022/08/29 05:33:01;;;;;;;7.15;3.70;;;;;;;;;;5015408;28;20029;-73
2022/08/29 05:35:26;;;;;;;7.22;3.80;;;;;;;;;;5006753;28;20022;-73
2022/08/29 05:37:51;;;;;;;9.70;4.45;;;;;;;;;;5004826;28;20083;-74
2022/08/29 05:40:17;;;;;;;8.35;3.85;;;;;;;;;;5012487;28;21193;-73
2022/08/29 05:42:42;;;;;;;10.48;3.25;;;;;;;;;;5011789;28;20029;-74
2022/08/29 05:45:08;;;;;;;6.43;3.03;;;;;;;;;;5005945;28;20243;-73
2022/08/29 05:47:33;;;;;;;8.02;4.03;;;;;;;;;;5008211;28;20033;-71
2022/08/29 05:49:59;;;;;;;10.85;3.85;;;;;;;;;;5013987;28;20030;-70
2022/08/29 05:52:24;;;;;;;7.75;3.80;;;;;;;;;;5004247;28;20033;-73
2022/08/29 05:54:50;;;;;;;8.57;3.13;;;;;;;;;;5010473;28;20508;-71
2022/08/29 05:57:17;;;;;;;7.65;3.00;;;;;;;;;;5004767;28;20060;-71
2022/08/29 05:59:42;;;;;;;9.15;4.05;;;;;;;;;;5002431;28;20068;-70
2022/08/29 06:02:08;;;;;;;10.95;3.47;;;;;;;;;;5000941;28;20037;-73
2022/08/29 06:04:34;;;;;;;8.45;3.75;;;;;;;;;;5014678;28;20022;-73
2022/08/29 06:06:59;;;;;;;8.27;3.85;;;;;;;;;;5001464;28;20079;-74
2022/08/29 06:09:24;;;;;;;9.30;4.93;;;;;;;;;;5005108;28;20121;-74
2022/08/29 06:11:51;;;;;;;9.60;3.88;;;;;;;;;;5010058;28;20021;-73
2022/08/29 06:14:17;;;;;;;6.28;3.70;;;;;;;;;;5015933;28;20143;-74
2022/08/29 06:16:42;;;;;;;11.80;4.43;;;;;;;;;;5014823;28;20473;-74
2022/08/29 06:19:08;;;;;;;12.52;3.55;;;;;;;;;;5013891;28;20033;-74
2022/08/29 06:21:33;;;;;;;9.98;3.90;;;;;;;;;;5008453;28;20033;-73
2022/08/29 06:23:58;;;;;;;8.77;3.40;;;;;;;;;;5014843;28;20477;-72
2022/08/29 06:26:24;;;;;;;7.30;3.35;;;;;;;;;;5003497;28;20091;-74
2022/08/29 06:28:49;;;;;;;6.15;3.08;;;;;;;;;;5010043;28;20448;-73
2022/08/29 06:31:23;;;;;;;9.60;3.80;;;;;;;;;;5011202;28;20037;-73
2022/08/29 06:33:50;;;;;;;7.03;3.40;;;;;;;;;;5008419;28;20107;-75
2022/08/29 06:36:15;;;;;;;8.68;4.25;;;;;;;;;;5009301;28;20025;-75
2022/08/29 06:38:40;;;;;;;7.82;3.63;;;;;;;;;;5005924;28;20068;-73
2022/08/29 06:41:07;;;;;;;7.47;3.80;;;;;;;;;;5005748;28;20037;-74
2022/08/29 06:43:32;;;;;;;11.25;4.15;;;;;;;;;;5014583;28;20524;-73
2022/08/29 06:45:58;;;;;;;9.65;3.67;;;;;;;;;;5015681;28;20037;-73
2022/08/29 06:48:24;;;;;;;8.88;3.90;;;;;;;;;;5015934;28;20025;-76
2022/08/29 06:50:50;;;;;;;9.95;3.50;;;;;;;;;;5014797;28;20021;-75
2022/08/29 06:53:16;;;;;;;12.57;5.10;;;;;;;;;;5024282;28;20027;-73
2022/08/29 06:55:41;;;;;;;8.43;4.13;;;;;;;;;;5003109;28;20032;-75
2022/08/29 06:58:06;;;;;;;9.32;3.80;;;;;;;;;;5013688;28;20044;-73
2022/08/29 07:00:31;;;;;;;12.65;4.15;;;;;;;;;;5006591;28;20838;-74
2022/08/29 07:02:57;;;;;;;11.23;4.38;;;;;;;;;;5013399;28;20037;-73
2022/08/29 07:05:22;;;;;;;10.90;4.10;;;;;;;;;;5006757;28;20071;-74
2022/08/29 07:07:48;;;;;;;11.18;3.78;;;;;;;;;;5012956;28;20042;-74
2022/08/29 07:10:13;;;;;;;14.65;4.45;;;;;;;;;;5015082;28;20112;-74
2022/08/29 07:12:39;;;;;;;10.57;5.32;;;;;;;;;;5011569;28;20026;-75
2022/08/29 07:15:04;;;;;;;12.93;6.30;;;;;;;;;;5012813;28;20065;-74
2022/08/29 07:17:30;;;;;;;10.48;5.80;;;;;;;;;;5018347;28;20093;-73
2022/08/29 07:19:55;;;;;;;15.18;6.53;;;;;;;;;;5015625;28;20036;-71
2022/08/29 07:22:20;;;;;;;13.82;7.18;;;;;;;;;;5023418;28;20369;-73
2022/08/29 07:24:45;;;;;;;18.02;6.65;;;;;;;;;;5016812;28;20026;-72
2022/08/29 07:27:11;;;;;;;18.08;7.45;;;;;;;;;;5006860;28;20058;-71
2022/08/29 07:29:37;;;;;;;17.75;6.97;;;;;;;;;;5010055;28;20033;-75
2022/08/29 07:32:02;;;;;;;22.77;8.73;;;;;;;;;;5010189;28;20851;-75
2022/08/29 07:34:27;;;;;;;16.00;7.03;;;;;;;;;;5012102;28;20959;-73
2022/08/29 07:36:52;;;;;;;10.43;6.20;;;;;;;;;;5014393;28;20426;-72
2022/08/29 07:39:18;;;;;;;15.40;7.32;;;;;;;;;;5011333;28;20026;-72
2022/08/29 07:41:44;;;;;;;15.13;6.63;;;;;;;;;;5014682;28;20033;-70
2022/08/29 07:44:10;;;;;;;19.20;7.45;;;;;;;;;;5010201;28;20871;-72
2022/08/29 07:46:35;;;;;;;24.30;8.73;;;;;;;;;;5017307;28;20108;-70
2022/08/29 07:49:01;;;;;;;16.75;8.15;;;;;;;;;;5018017;28;20029;-72
2022/08/29 07:51:27;;;;;;;22.17;9.20;;;;;;;;;;5015721;28;20060;-71
2022/08/29 07:53:52;;;;;;;20.73;8.05;;;;;;;;;;5014505;28;20438;-70
2022/08/29 07:56:26;;;;;;;21.98;8.52;;;;;;;;;;5015722;28;20022;-72
2022/08/29 07:58:52;;;;;;;20.77;9.23;;;;;;;;;;5012549;28;20087;-71
2022/08/29 08:01:17;;;;;;;20.67;8.15;;;;;;;;;;5015392;28;20041;-71
2022/08/29 08:03:43;;;;;;;18.38;6.93;;;;;;;;;;5020529;28;20025;-71
2022/08/29 08:06:09;;;;;;;17.58;7.90;;;;;;;;;;5016976;28;20050;-72
2022/08/29 08:08:34;;;;;;;19.85;6.60;;;;;;;;;;5021414;28;20409;-71
2022/08/29 08:11:02;;;;;;;18.45;7.07;;;;;;;;;;5014950;28;20030;-72
2022/08/29 08:13:27;;;;;;;16.80;5.60;;;;;;;;;;5013437;28;20041;-73
2022/08/29 08:15:54;;;;;;;15.90;6.53;;;;;;;;;;5023130;28;20092;-73
2022/08/29 08:18:19;;;;;;;15.18;5.57;;;;;;;;;;5017294;28;20021;-73
2022/08/29 08:20:47;;;;;;;12.02;5.28;;;;;;;;;;5016342;28;20392;-71
2022/08/29 08:23:13;;;;;;;10.05;3.88;;;;;;;;;;5016831;28;20536;-72
2022/08/29 08:25:38;;;;;;;9.35;4.05;;;;;;;;;;5013922;28;20060;-72
2022/08/29 08:28:03;;;;;;;11.93;4.47;;;;;;;;;;5014984;28;20108;-72
2022/08/29 08:30:28;;;;;;;12.38;4.40;;;;;;;;;;5012593;28;20014;-73
2022/08/29 08:32:53;;;;;;;10.27;4.40;;;;;;;;;;5024024;28;20036;-73
2022/08/29 08:35:19;;;;;;;9.73;4.55;;;;;;;;;;5012566;28;20282;-71
2022/08/29 08:37:44;;;;;;;8.25;2.92;;;;;;;;;;5016963;28;20886;-72
2022/08/29 08:40:15;;;;;;;7.82;3.85;;;;;;;;;;5013509;28;20508;-73
2022/08/29 08:42:42;;;;;;;12.90;5.05;;;;;;;;;;5017619;28;20056;-73
2022/08/29 08:45:17;;;;;;;12.88;3.47;;;;;;;;;;5021464;28;20299;-71
2022/08/29 08:47:46;;;;;;;8.93;3.63;;;;;;;;;;5013819;28;20025;-72
2022/08/29 08:50:22;;;;;;;9.63;2.70;;;;;;;;;;5010606;28;20462;-72
2022/08/29 08:52:51;;;;;;;19.65;4.38;;;;;;;;;;5010124;28;20025;-72
2022/08/29 08:55:24;;;;;;;10.93;4.03;;;;;;;;;;5015129;28;20057;-71
2022/08/29 08:57:53;;;;;;;8.55;3.90;;;;;;;;;;5019561;28;20022;-71
2022/08/29 09:00:18;;;;;;;8.55;3.10;;;;;;;;;;5018448;28;20038;-73
2022/08/29 09:02:44;;;;;;;8.68;3.55;;;;;;;;;;5017758;28;20045;-71
2022/08/29 09:05:12;;;;;;;10.75;5.60;;;;;;;;;;5019761;28;20055;-70
2022/08/29 09:07:55;;;;;;;12.80;3.80;;;;;;;;;;5021721;28;20021;-71
2022/08/29 09:10:31;;;;;;;14.30;4.03;;;;;;;;;;5015826;28;20128;-73
2022/08/29 09:12:59;;;;;;;5.97;3.00;;;;;;;;;;5015907;28;20104;-74
2022/08/29 09:15:30;;;;;;;9.40;3.17;;;;;;;;;;5017786;28;20034;-71
2022/08/29 09:18:01;;;;;;;8.20;3.30;;;;;;;;;;5020202;28;20026;-72
2022/08/29 09:20:28;;;;;;;6.13;3.10;;;;;;;;;;5016633;28;20044;-70
2022/08/29 09:23:06;;;;;;;10.00;3.40;;;;;;;;;;5020502;28;20030;-70
2022/08/29 09:25:34;;;;;;;13.82;3.35;;;;;;;;;;5014420;28;20137;-73
2022/08/29 09:28:00;;;;;;;8.20;3.80;;;;;;;;;;5015450;28;20099;-72
2022/08/29 09:30:27;;;;;;;7.35;3.50;;;;;;;;;;5018467;28;20478;-73
2022/08/29 09:33:00;;;;;;;12.90;2.92;;;;;;;;;;5014833;28;20045;-70
2022/08/29 09:35:28;;;;;;;8.43;3.80;;;;;;;;;;5017649;28;20029;-73
2022/08/29 09:37:56;;;;;;;7.95;2.63;;;;;;;;;;5019349;28;20037;-73
2022/08/29 09:40:22;;;;;;;9.63;3.55;;;;;;;;;;5017897;28;20113;-72
2022/08/29 09:42:59;;;;;;;9.27;2.83;;;;;;;;;;5021289;28;20504;-72
2022/08/29 09:45:25;;;;;;;6.57;2.47;;;;;;;;;;5019093;28;20033;-71
2022/08/29 09:48:16;;;;;;;8.43;2.70;;;;;;;;;;5018854;28;20482;-72
2022/08/29 09:50:42;;;;;;;8.07;3.30;;;;;;;;;;5013555;28;20041;-70
2022/08/29 09:53:07;;;;;;;10.75;2.75;;;;;;;;;;5020832;28;20036;-72
2022/08/29 09:55:38;;;;;;;5.97;2.60;;;;;;;;;;5016659;28;20531;-70
2022/08/29 09:58:03;;;;;;;6.25;2.35;;;;;;;;;;5016351;28;20033;-72
2022/08/29 10:00:31;;;;;;;6.40;2.95;;;;;;;;;;5024403;28;20465;-72
2022/08/29 10:03:00;;;;;;;15.27;3.10;;;;;;;;;;5013706;28;20033;-71
2022/08/29 10:05:32;;;;;;;8.43;2.72;;;;;;;;;;5010867;28;20045;-71
2022/08/29 10:07:57;;;;;;;7.93;2.22;;;;;;;;;;5006824;28;20527;-71
2022/08/29 10:10:24;;;;;;;9.70;3.15;;;;;;;;;;5006162;28;20029;-71
2022/08/29 10:13:08;;;;;;;7.50;2.70;;;;;;;;;;5009152;28;20038;-73
2022/08/29 10:15:38;;;;;;;9.70;2.47;;;;;;;;;;5011605;28;20393;-73
2022/08/29 10:18:19;;;;;;;7.38;2.50;;;;;;;;;;5017204;28;20028;-73
2022/08/29 10:20:47;;;;;;;4.45;2.10;;;;;;;;;;5011760;28;20034;-72
2022/08/29 10:23:23;;;;;;;6.10;2.45;;;;;;;;;;5011685;28;20088;-74
2022/08/29 10:25:48;;;;;;;8.30;3.17;;;;;;;;;;5017404;28;20094;-71
2022/08/29 10:28:33;;;;;;;6.65;2.72;;;;;;;;;;5012136;28;20215;-72
2022/08/29 10:31:05;;;;;;;6.35;2.72;;;;;;;;;;5009327;28;20057;-71
2022/08/29 10:33:49;;;;;;;10.48;3.30;;;;;;;;;;5014700;28;20562;-72
2022/08/29 10:36:16;;;;;;;5.80;2.45;;;;;;;;;;5014993;28;20049;-74
2022/08/29 10:38:45;;;;;;;6.47;2.58;;;;;;;;;;5011462;28;20692;-73
2022/08/29 10:41:10;;;;;;;5.53;2.72;;;;;;;;;;5015892;28;20034;-72
2022/08/29 10:43:35;;;;;;;6.82;3.20;;;;;;;;;;5011649;28;20025;-74
2022/08/29 10:46:19;;;;;;;13.40;3.13;;;;;;;;;;5016547;28;20038;-71
2022/08/29 10:48:44;;;;;;;8.35;2.15;;;;;;;;;;5013220;28;20294;-72
2022/08/29 10:51:21;;;;;;;9.55;2.55;;;;;;;;;;5010655;28;20029;-73
2022/08/29 10:53:51;;;;;;;10.48;2.30;;;;;;;;;;5017319;28;20026;-71
2022/08/29 10:56:21;;;;;;;9.93;3.30;;;;;;;;;;5008661;28;20025;-73
2022/08/29 10:58:46;;;;;;;5.68;2.70;;;;;;;;;;5011389;28;20039;-75
2022/08/29 11:01:28;;;;;;;7.27;2.97;;;;;;;;;;5001798;28;20482;-78
2022/08/29 11:03:54;;;;;;;5.35;2.83;;;;;;;;;;5008099;28;20907;-75
2022/08/29 11:06:25;;;;;;;9.98;2.60;;;;;;;;;;5013923;28;20338;-73
2022/08/29 11:09:00;;;;;;;12.85;2.65;;;;;;;;;;5012394;28;20084;-72
2022/08/29 11:11:28;;;;;;;8.68;2.78;;;;;;;;;;5013617;28;20022;-73
2022/08/29 11:13:59;;;;;;;7.88;2.67;;;;;;;;;;5016172;28;20022;-74
2022/08/29 11:16:28;;;;;;;7.60;2.90;;;;;;;;;;5013557;28;20462;-71
2022/08/29 11:18:53;;;;;;;7.93;2.50;;;;;;;;;;5011176;28;20041;-73
2022/08/29 11:21:38;;;;;;;8.60;2.80;;;;;;;;;;5014780;28;20045;-72
2022/08/29 11:24:04;;;;;;;8.65;2.85;;;;;;;;;;5007989;28;20022;-74
2022/08/29 11:26:32;;;;;;;4.30;2.50;;;;;;;;;;5013526;28;20135;-72
2022/08/29 11:29:03;;;;;;;9.57;2.70;;;;;;;;;;5013021;28;20040;-73
2022/08/29 11:31:47;;;;;;;8.18;2.88;;;;;;;;;;5012491;28;20139;-73
2022/08/29 11:34:26;;;;;;;5.57;2.85;;;;;;;;;;5010504;28;20026;-72
2022/08/29 11:36:54;;;;;;;8.20;2.67;;;;;;;;;;5018427;28;20506;-73
2022/08/29 11:39:31;;;;;;;5.00;2.67;;;;;;;;;;5015776;28;20134;-72
2022/08/29 11:42:00;;;;;;;10.90;2.97;;;;;;;;;;5017889;28;20087;-73
2022/08/29 11:44:46;;;;;;;8.63;4.20;;;;;;;;;;5014011;28;20480;-73
2022/08/29 11:47:32;;;;;;;11.77;3.67;;;;;;;;;;5013023;28;20121;-73
2022/08/29 11:50:20;;;;;;;7.95;2.90;;;;;;;;;;5018274;28;20397;-73
2022/08/29 11:52:51;;;;;;;8.30;2.60;;;;;;;;;;5010839;28;21041;-72
2022/08/29 11:55:22;;;;;;;6.80;2.70;;;;;;;;;;5010211;28;20030;-72
2022/08/29 11:57:50;;;;;;;8.52;2.85;;;;;;;;;;5017501;28;20022;-74
2022/08/29 12:00:23;;;;;;;11.05;3.10;;;;;;;;;;5021347;28;20030;-73
2022/08/29 12:02:48;;;;;;;5.47;2.42;;;;;;;;;;5018945;28;20032;-73
2022/08/29 12:05:16;;;;;;;9.70;4.47;;;;;;;;;;5022481;28;20033;-72
2022/08/29 12:07:49;;;;;;;9.00;2.92;;;;;;;;;;5018569;28;20278;-72
2022/08/29 12:10:23;;;;;;;10.68;3.47;;;;;;;;;;5022046;28;20116;-73
2022/08/29 12:12:55;;;;;;;8.93;2.72;;;;;;;;;;5024298;28;20180;-73
2022/08/29 12:15:34;;;;;;;12.60;3.90;;;;;;;;;;5022347;28;20087;-72
2022/08/29 12:17:59;;;;;;;8.88;3.88;;;;;;;;;;5021587;28;20036;-73
2022/08/29 12:20:24;;;;;;;11.70;3.37;;;;;;;;;;5016689;28;20416;-73
2022/08/29 12:22:55;;;;;;;6.50;3.30;;;;;;;;;;5011537;28;20283;-73
2022/08/29 12:25:26;;;;;;;6.03;3.60;;;;;;;;;;5011759;28;20279;-73
2022/08/29 12:27:54;;;;;;;10.85;4.07;;;;;;;;;;5012217;28;20087;-72
2022/08/29 12:30:20;;;;;;;7.05;3.13;;;;;;;;;;5005310;28;20533;-71
2022/08/29 12:33:11;;;;;;;10.68;3.30;;;;;;;;;;5011607;28;20021;-73
2022/08/29 12:35:54;;;;;;;8.77;3.30;;;;;;;;;;5012452;28;20048;-72
2022/08/29 12:38:19;;;;;;;;;;;;;;;;;;5020337;28;20040;-73
2022/08/29 12:40:47;;;;;;;8.33;3.47;;;;;;;;;;5015851;28;19909;-73
2022/08/29 12:43:24;;;;;;;6.97;2.70;;;;;;;;;;5017567;28;20282;-71
2022/08/29 12:45:51;;;;;;;10.85;3.05;;;;;;;;;;5016400;28;20025;-72
2022/08/29 12:48:23;;;;;;;7.38;2.78;;;;;;;;;;5018443;28;20029;-74
2022/08/29 12:50:49;;;;;;;15.15;3.90;;;;;;;;;;5017191;28;20033;-73
2022/08/29 12:53:19;;;;;;;7.70;3.90;;;;;;;;;;5019000;28;20022;-72
2022/08/29 12:55:48;;;;;;;8.27;3.30;;;;;;;;;;5016274;28;20021;-73
2022/08/29 12:58:28;;;;;;;7.68;3.25;;;;;;;;;;5017911;28;20380;-74
2022/08/29 13:00:54;;;;;;;4.80;3.10;;;;;;;;;;5010067;28;20037;-72
2022/08/29 13:03:19;;;;;;;10.48;3.50;;;;;;;;;;5009287;28;20408;-72
2022/08/29 13:05:45;;;;;;;7.38;2.80;;;;;;;;;;5015555;28;20040;-74
2022/08/29 13:08:15;;;;;;;17.95;4.53;;;;;;;;;;5016813;28;20033;-73
2022/08/29 13:10:50;;;;;;;9.48;3.78;;;;;;;;;;5015424;28;20594;-74
2022/08/29 13:13:18;;;;;;;8.07;3.20;;;;;;;;;;5010057;28;20033;-72
2022/08/29 13:15:47;;;;;;;11.52;3.85;;;;;;;;;;5017909;28;20492;-72
2022/08/29 13:18:16;;;;;;;8.55;3.60;;;;;;;;;;5016995;28;20473;-72
2022/08/29 13:20:44;;;;;;;7.30;3.10;;;;;;;;;;5011602;28;20056;-73
2022/08/29 13:23:16;;;;;;;6.28;3.35;;;;;;;;;;5018199;28;21322;-73
2022/08/29 13:25:59;;;;;;;10.57;3.95;;;;;;;;;;5018768;28;20037;-73
2022/08/29 13:28:27;;;;;;;9.70;3.08;;;;;;;;;;5014749;28;20033;-74
2022/08/29 13:31:07;;;;;;;10.43;3.53;;;;;;;;;;5011197;28;20033;-73
2022/08/29 13:33:32;;;;;;;9.00;3.25;;;;;;;;;;5013872;28;20024;-73
2022/08/29 13:35:58;;;;;;;10.82;4.00;;;;;;;;;;5020169;28;20038;-73
2022/08/29 13:38:24;;;;;;;11.23;3.70;;;;;;;;;;5011678;28;20040;-71
2022/08/29 13:40:54;;;;;;;11.68;3.47;;;;;;;;;;5015599;28;20294;-70
2022/08/29 13:43:33;;;;;;;9.85;3.47;;;;;;;;;;5015349;28;20450;-72
2022/08/29 13:46:23;;;;;;;12.57;3.40;;;;;;;;;;5015410;28;20061;-72
2022/08/29 13:48:56;;;;;;;7.72;3.10;;;;;;;;;;5015528;28;20033;-74
2022/08/29 13:51:21;;;;;;;10.40;3.92;;;;;;;;;;5013330;28;22138;-73
2022/08/29 13:53:46;;;;;;;9.15;2.95;;;;;;;;;;5012064;28;20040;-72
2022/08/29 13:56:20;;;;;;;17.30;4.32;;;;;;;;;;5020843;28;20489;-73
2022/08/29 13:58:45;;;;;;;8.73;3.20;;;;;;;;;;5013069;28;20057;-74
2022/08/29 14:01:10;;;;;;;9.47;3.13;;;;;;;;;;5012766;28;20124;-73
2022/08/29 14:03:36;;;;;;;12.23;3.50;;;;;;;;;;5016836;28;20321;-72
2022/08/29 14:06:01;;;;;;;4.97;2.40;;;;;;;;;;5018286;28;20933;-73
2022/08/29 14:08:28;;;;;;;11.73;3.87;;;;;;;;;;5013608;28;20025;-74
2022/08/29 14:10:53;;;;;;;9.35;4.10;;;;;;;;;;5008578;28;20274;-74
2022/08/29 14:13:19;;;;;;;6.85;2.83;;;;;;;;;;5014513;28;20032;-72
2022/08/29 14:15:44;;;;;;;8.05;4.22;;;;;;;;;;5009714;28;20030;-71
2022/08/29 14:18:10;;;;;;;6.65;3.05;;;;;;;;;;5009347;28;20040;-71
2022/08/29 14:20:35;;;;;;;13.73;3.42;;;;;;;;;;5008968;28;20022;-71
2022/08/29 14:23:01;;;;;;;6.43;3.08;;;;;;;;;;5007322;28;20274;-71
2022/08/29 14:25:26;;;;;;;8.50;2.72;;;;;;;;;;5010344;28;20065;-73
2022/08/29 14:27:52;;;;;;;9.73;2.70;;;;;;;;;;5007649;28;20057;-71
2022/08/29 14:30:19;;;;;;;8.95;3.75;;;;;;;;;;5012427;28;20026;-72
2022/08/29 14:32:45;;;;;;;8.02;3.33;;;;;;;;;;5013733;28;20350;-74
2022/08/29 14:35:11;;;;;;;10.98;3.47;;;;;;;;;;5003528;28;20030;-73
2022/08/29 14:37:37;;;;;;;7.80;3.25;;;;;;;;;;5014147;28;20491;-74
2022/08/29 14:40:03;;;;;;;6.55;3.05;;;;;;;;;;5005141;28;20147;-73
2022/08/29 14:42:29;;;;;;;5.97;3.03;;;;;;;;;;5014210;28;20033;-74
2022/08/29 14:44:54;;;;;;;8.30;3.50;;;;;;;;;;5014218;28;20026;-74